Time;durP1;ratioP1;P1;durP2;ratioP2;P2;SDS_P1;SDS_P2;PMS_P1;PMS_P2;Temp;Humidity;BMP_temperature;BMP_pressure;BME280_temperature;BME280_humidity;BME280_pressure;Samples;Min_cycle;Max_cycle;Signal;HPM_P1;HPM_P2
2023/03/31 00:01:18;;;;;;;41.18;35.13;;;28.00;91.10;;;;;;1847214;76;21167;-80
2023/03/31 00:03:49;;;;;;;41.35;35.40;;;28.00;90.70;;;;;;1861283;76;21191;-80
2023/03/31 00:06:20;;;;;;;40.52;34.38;;;28.00;90.90;;;;;;1859359;76;21400;-80
2023/03/31 00:08:52;;;;;;;41.10;35.48;;;28.10;91.00;;;;;;1869142;75;21142;-80
2023/03/31 00:11:23;;;;;;;42.33;34.63;;;28.10;91.30;;;;;;1866334;76;21883;-81
2023/03/31 00:13:55;;;;;;;41.33;36.00;;;28.10;91.10;;;;;;1870818;76;21529;-81
2023/03/31 00:16:43;;;;;;;;;;;;;;;;;;;;;
2023/03/31 00:19:20;;;;;;;39.48;35.30;;;28.20;91.20;;;;;;1845941;75;21169;-80
2023/03/31 00:21:53;;;;;;;42.40;36.23;;;28.20;91.30;;;;;;1856667;76;21178;-81
2023/03/31 00:24:23;;;;;;;46.13;36.65;;;28.20;91.20;;;;;;1851275;76;21504;-80
2023/03/31 00:26:54;;;;;;;40.58;36.00;;;28.30;90.70;;;;;;1834161;77;21123;-80
2023/03/31 00:29:25;;;;;;;40.35;35.58;;;28.30;90.50;;;;;;1857226;76;21135;-80
2023/03/31 00:31:58;;;;;;;44.83;35.70;;;28.30;91.10;;;;;;1853177;75;21139;-79
2023/03/31 00:34:29;;;;;;;41.85;37.35;;;28.30;91.20;;;;;;1870351;76;21194;-81
2023/03/31 00:37:04;;;;;;;44.77;39.08;;;28.30;91.20;;;;;;1867315;76;21129;-81
2023/03/31 00:39:36;;;;;;;46.83;38.90;;;28.30;91.30;;;;;;1870640;76;21147;-80
2023/03/31 00:42:11;;;;;;;48.02;38.05;;;28.40;91.10;;;;;;1865317;75;21131;-81
2023/03/31 00:45:04;;;;;;;46.37;39.92;;;28.40;91.00;;;;;;1859393;76;21131;-81
2023/03/31 00:47:41;;;;;;;42.93;37.50;;;28.30;91.10;;;;;;1858454;75;21463;-80
2023/03/31 00:50:11;;;;;;;41.50;35.28;;;28.30;91.00;;;;;;1868380;75;21225;-81
2023/03/31 00:52:42;;;;;;;43.05;36.80;;;28.30;90.90;;;;;;1865368;76;21123;-81
2023/03/31 00:55:18;;;;;;;48.40;37.90;;;28.30;90.80;;;;;;1870165;75;21197;-80
2023/03/31 00:57:52;;;;;;;46.63;37.42;;;28.30;90.90;;;;;;1859295;76;21204;-80
2023/03/31 01:00:23;;;;;;;45.35;37.35;;;28.40;90.80;;;;;;1855956;76;21166;-81
2023/03/31 01:03:02;;;;;;;45.70;37.08;;;28.40;90.90;;;;;;1871934;75;21107;-81
2023/03/31 01:05:38;;;;;;;39.15;34.63;;;28.50;91.00;;;;;;1868030;76;21171;-81
2023/03/31 01:08:09;;;;;;;46.10;38.42;;;28.50;90.80;;;;;;1842140;78;21201;-80
2023/03/31 01:10:43;;;;;;;44.18;36.63;;;28.60;90.90;;;;;;1868505;76;21162;-81
2023/03/31 01:13:16;;;;;;;47.45;38.15;;;28.70;90.80;;;;;;1861155;76;21166;-81
2023/03/31 01:15:48;;;;;;;45.83;38.40;;;28.80;90.90;;;;;;1856295;76;21163;-81
2023/03/31 01:18:21;;;;;;;49.13;40.50;;;28.80;90.50;;;;;;1885994;75;21224;-81
2023/03/31 01:21:29;;;;;;;45.67;39.30;;;28.80;90.50;;;;;;1874073;75;21200;-81
2023/03/31 01:24:30;;;;;;;52.30;39.50;;;28.90;90.50;;;;;;1848293;77;21147;-82
2023/03/31 01:27:22;;;;;;;50.63;39.30;;;28.90;90.70;;;;;;1863108;76;21083;-81
2023/03/31 01:30:18;;;;;;;48.85;38.85;;;28.80;90.20;;;;;;1871953;76;21555;-81
2023/03/31 01:33:03;;;;;;;45.23;37.67;;;28.90;90.00;;;;;;1861383;76;21181;-79
2023/03/31 01:35:54;;;;;;;44.18;37.78;;;28.90;90.00;;;;;;1873075;76;21480;-75
2023/03/31 01:38:52;;;;;;;46.23;38.45;;;28.90;89.20;;;;;;1863615;76;21867;-73
2023/03/31 01:41:44;;;;;;;43.38;37.40;;;29.00;89.00;;;;;;1839170;76;21972;-73
2023/03/31 01:44:41;;;;;;;46.10;38.15;;;29.00;88.80;;;;;;1824151;77;21203;-73
2023/03/31 01:47:22;;;;;;;44.65;38.23;;;29.10;88.70;;;;;;1825411;77;21197;-73
2023/03/31 01:49:58;;;;;;;46.90;38.48;;;29.20;88.10;;;;;;1866003;76;21657;-75
2023/03/31 01:52:48;;;;;;;44.50;38.45;;;29.20;88.20;;;;;;1870420;75;21200;-74
2023/03/31 01:55:25;;;;;;;46.15;37.60;;;29.30;86.90;;;;;;1863912;76;21537;-73
2023/03/31 01:58:04;;;;;;;43.40;38.33;;;29.30;86.60;;;;;;1865754;76;21771;-76
2023/03/31 02:00:39;;;;;;;49.05;38.13;;;29.40;87.50;;;;;;1868367;76;21988;-74
2023/03/31 02:03:18;;;;;;;43.85;38.98;;;29.50;87.50;;;;;;1857051;76;21196;-74
2023/03/31 02:05:52;;;;;;;40.25;35.17;;;29.50;86.00;;;;;;1868637;76;21410;-74
2023/03/31 02:08:26;;;;;;;46.55;36.35;;;29.70;84.80;;;;;;1859770;76;21170;-73
2023/03/31 02:10:59;;;;;;;40.25;34.67;;;29.80;84.70;;;;;;1848175;77;21139;-76
2023/03/31 02:13:30;;;;;;;40.78;36.33;;;29.90;83.80;;;;;;1849974;76;21104;-74
2023/03/31 02:16:04;;;;;;;39.83;34.38;;;30.00;82.70;;;;;;1862120;76;21161;-72
2023/03/31 02:18:37;;;;;;;43.45;35.68;;;30.00;82.60;;;;;;1855257;76;21135;-74
2023/03/31 02:21:10;;;;;;;40.05;35.40;;;30.10;82.70;;;;;;1868596;76;21202;-73
2023/03/31 02:23:42;;;;;;;40.50;36.13;;;30.20;82.30;;;;;;1859567;76;21492;-73
2023/03/31 02:26:16;;;;;;;40.73;35.88;;;30.30;82.60;;;;;;1868968;76;21270;-73
2023/03/31 02:28:47;;;;;;;44.23;38.33;;;30.30;82.50;;;;;;1871070;76;21186;-74
2023/03/31 02:31:24;;;;;;;44.67;36.40;;;30.50;82.20;;;;;;1861719;76;21146;-73
2023/03/31 02:33:56;;;;;;;43.60;36.75;;;30.50;81.80;;;;;;1862293;76;21138;-74
2023/03/31 02:36:28;;;;;;;46.02;36.65;;;30.60;80.80;;;;;;1853723;77;21131;-75
2023/03/31 02:39:01;;;;;;;44.35;36.93;;;30.70;81.20;;;;;;1847993;77;21213;-73
2023/03/31 02:41:33;;;;;;;43.10;36.73;;;30.70;80.80;;;;;;1850556;76;21120;-75
2023/03/31 02:44:04;;;;;;;42.75;35.55;;;30.70;81.30;;;;;;1862338;76;21266;-77
2023/03/31 02:46:35;;;;;;;41.28;35.55;;;30.90;81.20;;;;;;1844394;76;21225;-77
2023/03/31 02:49:09;;;;;;;44.95;36.38;;;31.00;80.30;;;;;;1807466;78;21217;-76
2023/03/31 02:51:51;;;;;;;49.25;38.15;;;31.20;79.90;;;;;;1830944;77;21151;-76
2023/03/31 02:54:45;;;;;;;55.00;39.63;;;31.20;79.20;;;;;;1851046;76;21209;-75
2023/03/31 02:57:52;;;;;;;226.98;70.55;;;31.30;78.30;;;;;;1853995;76;21148;-76
2023/03/31 03:00:40;;;;;;;153.18;51.88;;;31.40;78.90;;;;;;1843025;77;21131;-74
2023/03/31 03:03:44;;;;;;;124.85;46.28;;;31.40;79.00;;;;;;1831203;77;21407;-76
2023/03/31 03:06:23;;;;;;;55.63;38.42;;;31.50;78.50;;;;;;1851068;76;21512;-76
2023/03/31 03:09:17;;;;;;;47.78;37.13;;;31.70;77.70;;;;;;1847955;77;21208;-76
2023/03/31 03:11:56;;;;;;;43.87;35.68;;;31.80;76.70;;;;;;1807376;79;21146;-77
2023/03/31 03:14:49;;;;;;;39.40;33.15;;;31.90;75.80;;;;;;1842694;76;21150;-74
2023/03/31 03:17:47;;;;;;;48.90;37.40;;;32.00;75.30;;;;;;1836554;77;21408;-75
2023/03/31 03:20:20;;;;;;;43.58;34.38;;;32.20;78.40;;;;;;1839726;76;21163;-75
2023/03/31 03:22:51;;;;;;;55.55;41.70;;;32.30;74.60;;;;;;1834191;77;21129;-75
2023/03/31 03:25:23;;;;;;;38.92;34.65;;;32.40;75.30;;;;;;1837876;77;21902;-76
2023/03/31 03:27:54;;;;;;;38.50;34.35;;;32.50;74.20;;;;;;1833369;78;21213;-74
2023/03/31 03:30:25;;;;;;;45.55;36.58;;;32.60;74.10;;;;;;1845912;76;21261;-75
2023/03/31 03:32:57;;;;;;;43.85;36.20;;;32.70;73.90;;;;;;1848262;77;21252;-74
2023/03/31 03:35:29;;;;;;;43.17;33.80;;;32.90;73.80;;;;;;1832015;77;21511;-74
2023/03/31 03:38:00;;;;;;;42.70;34.78;;;33.00;72.20;;;;;;1848667;77;21147;-75
2023/03/31 03:40:31;;;;;;;47.95;34.13;;;33.10;72.00;;;;;;1860876;76;21579;-74
2023/03/31 03:43:03;;;;;;;42.33;35.20;;;33.20;72.10;;;;;;1848702;77;21146;-75
2023/03/31 03:45:34;;;;;;;42.23;34.45;;;33.30;72.10;;;;;;1856742;76;21147;-76
2023/03/31 03:48:06;;;;;;;46.45;35.33;;;33.40;71.40;;;;;;1852645;76;21166;-75
2023/03/31 03:50:38;;;;;;;45.08;34.35;;;33.50;70.90;;;;;;1854868;77;21409;-75
2023/03/31 03:53:09;;;;;;;38.45;33.70;;;33.60;70.00;;;;;;1853320;77;21183;-72
2023/03/31 03:55:40;;;;;;;42.10;34.38;;;33.70;70.40;;;;;;1858790;76;21123;-73
2023/03/31 03:58:11;;;;;;;40.98;35.25;;;33.80;69.40;;;;;;1850325;76;21170;-74
2023/03/31 04:00:44;;;;;;;39.88;35.58;;;33.90;69.10;;;;;;1826888;77;21156;-73
2023/03/31 04:03:15;;;;;;;37.63;31.15;;;33.90;69.60;;;;;;1865261;76;21184;-74
2023/03/31 04:05:48;;;;;;;33.80;29.87;;;34.00;67.50;;;;;;1859106;76;21213;-73
2023/03/31 04:08:28;;;;;;;37.90;33.40;;;34.10;65.60;;;;;;1856550;77;21380;-73
2023/03/31 04:10:59;;;;;;;36.33;31.23;;;34.20;66.50;;;;;;1857966;77;21151;-75
2023/03/31 04:13:31;;;;;;;38.63;31.68;;;34.20;66.20;;;;;;1859344;77;21214;-73
2023/03/31 04:16:02;;;;;;;34.00;30.12;;;34.30;66.30;;;;;;1855165;77;21211;-72
2023/03/31 04:18:36;;;;;;;32.53;29.23;;;34.30;66.20;;;;;;1849435;77;21185;-73
2023/03/31 04:21:06;;;;;;;33.60;28.83;;;34.30;65.30;;;;;;1846307;77;21495;-73
2023/03/31 04:23:45;;;;;;;32.25;28.87;;;34.20;65.10;;;;;;1847741;76;21194;-74
2023/03/31 04:26:11;;;;;;;37.78;30.95;;;34.20;65.50;;;;;;1852700;77;21172;-73
2023/03/31 04:28:45;;;;;;;35.03;29.42;;;34.20;65.70;;;;;;1862450;76;21194;-73
2023/03/31 04:31:23;;;;;;;34.58;30.88;;;34.30;66.60;;;;;;1862167;77;21172;-73
2023/03/31 04:33:53;;;;;;;33.53;30.08;;;34.40;65.40;;;;;;1840826;77;21382;-73
2023/03/31 04:36:25;;;;;;;33.02;29.00;;;34.50;64.70;;;;;;1863018;76;21181;-74
2023/03/31 04:38:56;;;;;;;37.85;27.48;;;34.60;63.20;;;;;;1839604;76;21717;-73
2023/03/31 04:41:28;;;;;;;32.08;28.45;;;34.60;63.70;;;;;;1861170;77;21163;-75
2023/03/31 04:43:59;;;;;;;33.00;27.42;;;;;;;;;;1862023;77;21222;-74
2023/03/31 04:46:31;;;;;;;33.55;28.07;;;34.80;63.10;;;;;;1862840;76;21989;-74
2023/03/31 04:49:02;;;;;;;34.88;29.65;;;34.80;63.40;;;;;;1862924;76;21221;-73
2023/03/31 04:51:33;;;;;;;32.35;28.05;;;34.90;62.40;;;;;;1862238;77;21237;-73
2023/03/31 04:54:05;;;;;;;35.50;31.68;;;34.90;61.70;;;;;;1837303;76;21241;-72
2023/03/31 04:56:36;;;;;;;30.85;26.68;;;34.90;62.40;;;;;;1824676;78;21595;-73
2023/03/31 04:59:07;;;;;;;31.05;27.30;;;35.00;61.30;;;;;;1853310;77;21190;-73
2023/03/31 05:01:43;;;;;;;29.63;25.77;;;35.00;61.00;;;;;;1852683;77;21121;-72
2023/03/31 05:04:11;;;;;;;34.13;28.30;;;35.00;61.30;;;;;;1867030;76;21233;-73
2023/03/31 05:06:43;;;;;;;32.20;28.90;;;35.00;61.10;;;;;;1861379;77;21675;-73
2023/03/31 05:09:14;;;;;;;32.55;29.07;;;35.10;61.50;;;;;;1810863;78;21182;-72
2023/03/31 05:11:50;;;;;;;31.70;28.40;;;35.10;60.80;;;;;;1848229;76;21212;-73
2023/03/31 05:14:19;;;;;;;33.23;29.63;;;;;;;;;;1840685;75;21228;-73
2023/03/31 05:16:51;;;;;;;37.85;29.70;;;35.30;60.60;;;;;;1854917;77;21120;-75
2023/03/31 05:19:22;;;;;;;37.78;30.25;;;35.30;61.40;;;;;;1848548;77;21183;-73
2023/03/31 05:21:54;;;;;;;37.28;29.67;;;35.30;60.50;;;;;;1856012;76;21943;-74
2023/03/31 05:24:28;;;;;;;34.20;29.57;;;35.10;61.50;;;;;;1859428;76;21194;-72
2023/03/31 05:26:58;;;;;;;29.63;26.52;;;35.20;61.00;;;;;;1851373;76;21123;-72
2023/03/31 05:29:30;;;;;;;33.25;26.40;;;35.20;61.10;;;;;;1817924;78;21261;-74
2023/03/31 05:32:01;;;;;;;30.37;26.77;;;35.20;60.50;;;;;;1854530;76;21683;-73
2023/03/31 05:34:33;;;;;;;25.17;21.30;;;35.30;59.90;;;;;;1850749;76;21127;-72
2023/03/31 05:37:04;;;;;;;22.55;19.98;;;35.50;58.10;;;;;;1851969;76;21264;-73
2023/03/31 05:39:35;;;;;;;23.42;19.48;;;35.60;58.10;;;;;;1851647;76;21273;-73
2023/03/31 05:42:07;;;;;;;24.43;21.65;;;35.60;57.50;;;;;;1859204;76;21719;-74
2023/03/31 05:44:38;;;;;;;24.00;21.48;;;35.70;57.50;;;;;;1859007;76;21120;-73
2023/03/31 05:47:10;;;;;;;25.80;22.40;;;35.80;59.70;;;;;;1861702;76;21564;-73
2023/03/31 05:49:41;;;;;;;23.07;20.62;;;35.70;57.70;;;;;;1855884;76;21112;-72
2023/03/31 05:52:13;;;;;;;24.30;21.80;;;35.70;57.60;;;;;;1862112;76;21220;-72
2023/03/31 05:54:44;;;;;;;24.65;21.42;;;35.80;58.60;;;;;;1851968;76;21263;-73
2023/03/31 05:57:15;;;;;;;30.27;21.37;;;35.80;59.90;;;;;;1844545;78;21161;-72
2023/03/31 05:59:47;;;;;;;23.35;20.97;;;35.80;59.70;;;;;;1852135;77;21127;-73
2023/03/31 06:02:18;;;;;;;24.32;21.73;;;35.70;61.60;;;;;;1822311;78;21175;-78
2023/03/31 06:04:50;;;;;;;23.40;20.80;;;35.60;62.90;;;;;;1860049;76;21622;-73
2023/03/31 06:07:24;;;;;;;25.68;22.90;;;35.50;68.70;;;;;;1854227;77;21305;-72
2023/03/31 06:10:01;;;;;;;26.55;22.75;;;35.80;66.80;;;;;;1845739;76;21206;-75
2023/03/31 06:12:33;;;;;;;28.40;22.07;;;35.40;61.80;;;;;;1872680;76;21131;-73
2023/03/31 06:15:05;;;;;;;24.70;21.93;;;35.40;64.00;;;;;;1890113;75;21111;-72
2023/03/31 06:17:36;;;;;;;27.15;22.75;;;35.40;58.60;;;;;;1908733;75;21410;-73
2023/03/31 06:20:08;;;;;;;27.95;22.20;;;35.40;57.90;;;;;;1923548;73;21172;-72
2023/03/31 06:22:41;;;;;;;27.02;22.32;;;35.40;58.60;;;;;;1897855;74;21650;-71
2023/03/31 06:25:12;;;;;;;27.40;23.67;;;35.50;58.10;;;;;;1940936;73;21114;-72
2023/03/31 06:27:44;;;;;;;25.45;21.62;;;35.70;58.50;;;;;;1943895;74;21218;-72
2023/03/31 06:30:15;;;;;;;23.40;20.90;;;35.90;59.70;;;;;;1927768;73;21114;-73
2023/03/31 06:32:46;;;;;;;24.35;21.75;;;35.70;57.60;;;;;;1927975;73;21084;-72
2023/03/31 06:35:20;;;;;;;25.17;22.22;;;35.80;58.20;;;;;;1942055;73;21149;-71
2023/03/31 06:37:53;;;;;;;31.37;26.12;;;35.90;92.00;;;;;;1948545;73;21453;-72
2023/03/31 06:40:25;;;;;;;30.37;24.60;;;36.20;86.60;;;;;;1939293;72;21105;-73
2023/03/31 06:42:56;;;;;;;45.52;26.17;;;36.30;88.90;;;;;;1952988;73;21910;-72
2023/03/31 06:45:28;;;;;;;29.20;25.15;;;36.30;75.30;;;;;;1942135;73;21119;-72
2023/03/31 06:47:59;;;;;;;35.17;25.68;;;35.90;59.50;;;;;;1934782;73;21195;-72
2023/03/31 06:50:30;;;;;;;29.72;25.68;;;35.80;59.60;;;;;;1923751;74;21126;-72
2023/03/31 06:53:03;;;;;;;28.10;24.05;;;35.60;59.50;;;;;;1923038;74;21121;-72
2023/03/31 06:55:34;;;;;;;31.23;24.85;;;35.50;59.80;;;;;;1948929;73;21135;-72
2023/03/31 06:58:06;;;;;;;26.80;24.00;;;35.30;59.60;;;;;;1941162;73;21175;-71
2023/03/31 07:00:38;;;;;;;25.95;23.12;;;35.20;59.90;;;;;;1922716;74;21114;-72
2023/03/31 07:03:15;;;;;;;30.60;24.55;;;35.20;60.10;;;;;;1923321;74;21223;-75
2023/03/31 07:05:42;;;;;;;27.77;24.27;;;35.10;60.50;;;;;;1944753;73;21174;-74
2023/03/31 07:08:13;;;;;;;27.95;25.15;;;35.10;61.20;;;;;;1951535;73;21220;-73
2023/03/31 07:10:50;;;;;;;30.77;27.35;;;35.00;61.80;;;;;;1927948;73;21211;-72
2023/03/31 07:13:18;;;;;;;26.90;23.22;;;35.10;61.80;;;;;;1922850;74;21141;-73
2023/03/31 07:15:49;;;;;;;24.40;21.42;;;35.10;60.30;;;;;;1916711;74;21119;-74
2023/03/31 07:18:24;;;;;;;21.50;19.32;;;35.20;58.80;;;;;;1884374;75;21115;-74
2023/03/31 07:20:53;;;;;;;22.65;20.12;;;35.20;57.00;;;;;;1868924;75;21195;-72
2023/03/31 07:23:25;;;;;;;23.12;20.00;;;35.20;57.20;;;;;;1863975;76;21129;-73
2023/03/31 07:26:04;;;;;;;23.70;21.15;;;35.20;57.10;;;;;;1873905;76;21139;-73
2023/03/31 07:28:35;;;;;;;20.60;18.40;;;35.20;57.40;;;;;;1929195;73;21967;-72
2023/03/31 07:31:11;;;;;;;22.62;20.23;;;35.20;56.40;;;;;;1921191;73;21143;-74
2023/03/31 07:33:45;;;;;;;22.67;19.95;;;35.20;55.70;;;;;;1914047;74;21413;-74
2023/03/31 07:36:17;;;;;;;23.47;20.30;;;35.20;56.30;;;;;;1884590;76;21896;-73
2023/03/31 07:38:52;;;;;;;22.75;18.92;;;35.20;56.30;;;;;;1921182;73;21279;-74
2023/03/31 07:41:24;;;;;;;19.48;17.20;;;35.30;55.40;;;;;;1933542;73;21189;-74
2023/03/31 07:43:56;;;;;;;20.17;18.27;;;35.30;55.00;;;;;;1921472;74;21155;-72
2023/03/31 07:49:19;;;;;;;20.20;18.12;;;35.40;55.00;;;;;;1860359;76;21392;-74
2023/03/31 07:51:51;;;;;;;21.05;18.95;;;35.40;55.40;;;;;;1854218;77;21176;-73
2023/03/31 07:54:22;;;;;;;18.67;16.73;;;35.50;54.50;;;;;;1881149;75;21140;-73
2023/03/31 07:56:56;;;;;;;22.13;17.27;;;35.60;54.60;;;;;;1881264;75;21139;-74
2023/03/31 07:59:29;;;;;;;20.43;17.37;;;35.70;53.90;;;;;;1898572;75;21187;-73
2023/03/31 08:02:00;;;;;;;25.52;17.70;;;35.70;52.40;;;;;;1841829;77;21166;-74
2023/03/31 08:04:31;;;;;;;22.00;17.05;;;35.70;53.70;;;;;;1874298;75;21174;-73
2023/03/31 08:07:03;;;;;;;17.67;15.30;;;35.60;53.10;;;;;;1869534;77;22049;-73
2023/03/31 08:09:34;;;;;;;18.40;15.98;;;35.60;52.70;;;;;;1860604;76;21200;-73
2023/03/31 08:12:06;;;;;;;20.57;16.93;;;35.60;51.30;;;;;;1856006;77;21217;-74
2023/03/31 08:14:37;;;;;;;19.52;15.70;;;35.60;53.00;;;;;;1849917;77;21119;-74
2023/03/31 08:17:10;;;;;;;21.12;17.20;;;35.70;53.50;;;;;;1858564;75;21158;-72
2023/03/31 08:19:43;;;;;;;18.23;16.20;;;35.70;54.50;;;;;;1858260;76;21974;-74
2023/03/31 08:22:14;;;;;;;23.45;18.73;;;35.80;54.70;;;;;;1850332;76;21236;-74
2023/03/31 08:24:46;;;;;;;19.95;17.95;;;35.80;55.00;;;;;;1852827;77;21198;-72
2023/03/31 08:27:18;;;;;;;25.57;17.55;;;35.70;56.00;;;;;;1847984;77;21138;-72
2023/03/31 08:29:49;;;;;;;24.63;18.48;;;35.70;56.30;;;;;;1849542;77;21135;-74
2023/03/31 08:32:24;;;;;;;22.60;18.73;;;35.70;56.80;;;;;;1855197;75;21135;-72
2023/03/31 08:35:02;;;;;;;24.52;18.82;;;35.60;57.10;;;;;;1867606;75;21622;-74
2023/03/31 08:37:34;;;;;;;22.40;18.32;;;35.60;57.60;;;;;;1862500;75;21327;-73
2023/03/31 08:40:12;;;;;;;24.35;19.87;;;35.50;57.70;;;;;;1887732;75;21407;-74
2023/03/31 08:42:50;;;;;;;22.17;19.73;;;35.50;57.90;;;;;;1838015;78;21252;-81
2023/03/31 08:45:30;;;;;;;24.72;18.60;;;35.50;58.00;;;;;;1842133;77;21142;-80
2023/03/31 08:48:04;;;;;;;25.15;18.60;;;35.40;57.50;;;;;;1828812;77;21466;-80
2023/03/31 08:50:38;;;;;;;22.82;18.82;;;35.40;57.70;;;;;;1791534;79;21433;-80
2023/03/31 08:53:15;;;;;;;29.85;19.65;;;35.40;57.90;;;;;;1829821;77;21520;-81
2023/03/31 08:55:52;;;;;;;;;;;35.40;58.10;;;;;;1843556;77;21111;-80
2023/03/31 08:58:32;;;;;;;24.63;18.50;;;35.40;58.10;;;;;;1842713;77;20230;-79
2023/03/31 09:01:09;;;;;;;21.50;18.73;;;35.40;58.30;;;;;;1858907;77;21060;-80
2023/03/31 09:03:58;;;;;;;21.87;18.75;;;35.30;58.20;;;;;;1842245;77;21169;-81
2023/03/31 09:06:44;;;;;;;23.05;19.23;;;35.30;58.60;;;;;;1835023;77;21127;-81
2023/03/31 09:09:20;;;;;;;26.15;19.95;;;35.20;60.00;;;;;;1819859;77;21108;-80
2023/03/31 09:11:55;;;;;;;23.07;20.52;;;35.10;61.20;;;;;;1838168;77;21203;-79
2023/03/31 09:14:52;;;;;;;25.82;19.75;;;35.00;62.00;;;;;;1853580;77;21129;-81
2023/03/31 09:17:29;;;;;;;20.52;18.42;;;35.00;62.40;;;;;;1838631;77;21131;-80
2023/03/31 09:20:15;;;;;;;22.00;19.77;;;34.90;62.50;;;;;;1847947;77;21138;-80
2023/03/31 09:22:51;;;;;;;21.50;19.00;;;34.90;62.10;;;;;;1842326;76;21155;-80
2023/03/31 09:25:27;;;;;;;31.57;18.45;;;34.80;60.80;;;;;;1855046;75;21185;-79
2023/03/31 09:28:00;;;;;;;20.65;18.45;;;34.80;60.70;;;;;;1834857;77;21603;-81
2023/03/31 09:30:33;;;;;;;22.15;18.42;;;34.80;60.10;;;;;;1844511;77;21140;-79
2023/03/31 09:33:13;;;;;;;20.65;18.55;;;34.80;59.30;;;;;;1857707;77;21083;-81
2023/03/31 09:35:45;;;;;;;23.95;19.25;;;34.80;59.50;;;;;;1850120;77;21694;-80
2023/03/31 09:38:18;;;;;;;23.00;19.23;;;34.80;59.60;;;;;;1844546;77;21239;-81
2023/03/31 09:40:49;;;;;;;21.42;19.07;;;34.70;59.70;;;;;;1858621;77;21154;-80
2023/03/31 09:43:26;;;;;;;21.27;18.40;;;34.70;60.10;;;;;;1857255;77;21641;-80
2023/03/31 09:45:57;;;;;;;22.15;18.67;;;34.70;60.30;;;;;;1839814;77;21434;-80
2023/03/31 09:48:32;;;;;;;19.82;17.73;;;34.70;60.20;;;;;;1843400;75;21185;-80
2023/03/31 09:51:12;;;;;;;22.87;17.85;;;34.70;58.90;;;;;;1884432;76;21220;-80
2023/03/31 09:53:48;;;;;;;21.37;18.77;;;34.80;58.90;;;;;;1863499;76;21225;-81
2023/03/31 09:56:35;;;;;;;;;;;34.70;59.00;;;;;;1851104;77;21134;-82
2023/03/31 09:59:06;;;;;;;20.95;18.02;;;34.70;58.90;;;;;;1854852;76;20557;-79
2023/03/31 10:01:37;;;;;;;19.55;17.50;;;34.70;59.30;;;;;;1869665;76;21208;-81
2023/03/31 10:04:09;;;;;;;20.48;18.27;;;34.70;59.30;;;;;;1858769;76;21157;-81
2023/03/31 10:06:43;;;;;;;19.75;17.50;;;34.70;59.60;;;;;;1876542;74;21227;-81
2023/03/31 10:09:15;;;;;;;19.60;17.17;;;34.70;59.70;;;;;;1874870;76;21187;-79
2023/03/31 10:11:55;;;;;;;18.70;16.85;;;34.70;60.10;;;;;;1894751;74;21146;-80
2023/03/31 10:14:29;;;;;;;18.07;16.23;;;34.60;60.10;;;;;;1866592;76;21927;-80
2023/03/31 10:17:02;;;;;;;19.57;17.57;;;34.60;60.90;;;;;;1864096;76;21693;-82
2023/03/31 10:19:36;;;;;;;19.32;17.23;;;34.60;59.90;;;;;;1865033;76;21178;-80
2023/03/31 10:22:18;;;;;;;18.23;16.02;;;34.50;59.50;;;;;;1856283;76;21684;-80
2023/03/31 10:24:57;;;;;;;20.35;16.27;;;34.50;59.50;;;;;;1876468;75;21153;-79
2023/03/31 10:27:31;;;;;;;26.20;17.62;;;34.50;59.90;;;;;;1852520;76;21080;-79
2023/03/31 10:30:10;;;;;;;23.02;17.12;;;34.50;59.90;;;;;;1886291;75;21078;-80
2023/03/31 10:32:46;;;;;;;20.15;17.20;;;34.40;60.20;;;;;;1857061;76;21079;-80
2023/03/31 10:35:36;;;;;;;18.82;16.73;;;34.40;60.90;;;;;;1869030;76;21161;-80
2023/03/31 10:38:12;;;;;;;20.68;17.17;;;34.40;61.30;;;;;;1860586;76;21653;-80
2023/03/31 10:40:44;;;;;;;;;;;34.40;61.40;;;;;;1869743;76;21118;-80
2023/03/31 10:43:26;;;;;;;19.95;16.48;;;34.30;61.50;;;;;;1820035;78;20208;-80
2023/03/31 10:45:59;;;;;;;18.70;16.82;;;34.30;61.60;;;;;;1819894;75;21107;-81
2023/03/31 10:48:40;;;;;;;20.50;17.77;;;34.20;61.90;;;;;;1861038;77;21224;-84
2023/03/31 10:51:13;;;;;;;20.65;17.17;;;34.20;62.20;;;;;;1845044;77;21103;-81
2023/03/31 10:53:49;;;;;;;25.72;18.15;;;34.10;62.30;;;;;;1831745;77;21700;-81
2023/03/31 10:56:37;;;;;;;24.52;17.80;;;34.10;62.30;;;;;;1856631;77;21205;-80
2023/03/31 10:59:29;;;;;;;22.65;17.45;;;34.10;62.70;;;;;;1859469;77;21635;-79
2023/03/31 11:02:06;;;;;;;19.37;17.35;;;34.00;62.90;;;;;;1859533;77;21209;-79
2023/03/31 11:05:08;;;;;;;24.27;18.05;;;34.00;63.00;;;;;;1847267;77;21190;-81
2023/03/31 11:08:15;;;;;;;18.85;16.87;;;33.90;63.00;;;;;;1849636;77;21876;-81
2023/03/31 11:10:50;;;;;;;21.23;18.30;;;34.00;63.20;;;;;;1852141;77;21134;-80
2023/03/31 11:13:38;;;;;;;31.90;20.05;;;33.90;63.20;;;;;;1843109;77;21228;-79
2023/03/31 11:16:30;;;;;;;23.05;20.65;;;33.80;63.20;;;;;;1862561;77;21167;-80
2023/03/31 11:19:09;;;;;;;21.93;19.48;;;33.90;63.50;;;;;;1842116;77;21485;-80
2023/03/31 11:21:58;;;;;;;23.98;19.42;;;33.80;63.30;;;;;;1839910;77;21154;-80
2023/03/31 11:24:34;;;;;;;21.27;18.60;;;33.80;63.50;;;;;;1870367;76;21877;-79
2023/03/31 11:27:08;;;;;;;;;;;33.80;63.70;;;;;;1867788;76;21142;-80
2023/03/31 11:29:54;;;;;;;86.35;77.00;;;33.70;63.70;;;;;;1792948;78;20667;-80
2023/03/31 11:32:48;;;;;;;106.35;94.70;;;33.70;63.90;;;;;;1842195;77;21537;-80
2023/03/31 11:35:53;;;;;;;67.97;60.75;;;33.70;63.90;;;;;;1871663;76;21874;-80
2023/03/31 11:38:28;;;;;;;91.50;82.12;;;33.70;64.10;;;;;;1862903;74;21661;-80
2023/03/31 11:41:11;;;;;;;47.43;42.67;;;33.70;64.30;;;;;;1868888;77;21182;-80
2023/03/31 11:43:47;;;;;;;45.60;40.83;;;33.70;64.60;;;;;;1844449;76;21472;-80
2023/03/31 11:46:24;;;;;;;32.75;29.07;;;33.60;64.60;;;;;;1853656;77;21206;-79
2023/03/31 11:49:03;;;;;;;30.15;22.75;;;33.60;64.80;;;;;;1847773;76;21813;-80
2023/03/31 11:51:46;;;;;;;25.15;22.48;;;33.60;65.10;;;;;;1856537;76;21215;-81
2023/03/31 11:54:22;;;;;;;25.17;21.55;;;33.60;65.50;;;;;;1878532;75;21205;-81
2023/03/31 11:56:56;;;;;;;27.15;21.77;;;33.50;65.60;;;;;;1858866;75;21133;-80
2023/03/31 11:59:30;;;;;;;25.48;22.35;;;33.50;65.80;;;;;;1839666;76;21164;-81
2023/03/31 12:02:19;;;;;;;24.12;20.68;;;33.50;66.10;;;;;;1863512;77;21206;-80
2023/03/31 12:04:56;;;;;;;23.80;21.30;;;33.50;66.40;;;;;;1862030;76;21197;-81
2023/03/31 12:07:33;;;;;;;30.20;22.02;;;33.40;66.70;;;;;;1846660;76;21166;-79
2023/03/31 12:10:19;;;;;;;24.30;20.57;;;33.40;67.00;;;;;;1855640;76;21573;-80
2023/03/31 12:13:00;;;;;;;23.50;21.00;;;33.40;67.30;;;;;;1871988;76;21134;-80
2023/03/31 12:15:34;;;;;;;25.62;20.62;;;33.30;67.40;;;;;;1855290;74;21119;-80
2023/03/31 12:18:20;;;;;;;24.98;21.80;;;33.30;67.60;;;;;;1853736;76;21134;-80
2023/03/31 12:20:53;;;;;;;24.20;21.62;;;33.30;68.10;;;;;;1870543;76;21412;-80
2023/03/31 12:23:31;;;;;;;23.15;20.57;;;33.30;67.90;;;;;;1869328;76;21158;-81
2023/03/31 12:26:14;;;;;;;24.50;20.48;;;33.30;68.00;;;;;;1843207;77;21234;-79
2023/03/31 12:28:48;;;;;;;24.20;19.73;;;33.20;67.90;;;;;;1849130;75;21412;-80
2023/03/31 12:31:24;;;;;;;24.82;21.37;;;33.20;67.90;;;;;;1861601;76;21121;-79
2023/03/31 12:34:11;;;;;;;32.78;21.40;;;33.20;67.60;;;;;;1853189;75;21251;-80
2023/03/31 12:36:48;;;;;;;27.17;21.15;;;33.20;67.60;;;;;;1846228;76;21187;-81
2023/03/31 12:39:35;;;;;;;26.17;20.68;;;33.20;67.90;;;;;;1856107;75;21153;-80
2023/03/31 12:42:14;;;;;;;22.30;19.98;;;33.20;68.00;;;;;;1838131;78;21133;-82
2023/03/31 12:45:04;;;;;;;24.50;20.75;;;33.20;67.90;;;;;;1868526;75;21189;-81
2023/03/31 12:47:57;;;;;;;25.80;21.33;;;33.20;68.10;;;;;;1847531;76;21135;-80
2023/03/31 12:50:42;;;;;;;31.82;22.70;;;33.20;68.30;;;;;;1862689;76;21564;-80
2023/03/31 12:53:16;;;;;;;26.35;23.55;;;33.20;68.80;;;;;;1846202;77;21205;-80
2023/03/31 12:55:52;;;;;;;24.82;22.20;;;33.10;68.50;;;;;;1855243;77;21139;-80
2023/03/31 12:58:30;;;;;;;27.65;22.37;;;33.10;68.40;;;;;;1829904;77;21159;-80
2023/03/31 13:01:20;;;;;;;25.48;22.65;;;33.10;68.70;;;;;;1840258;77;21131;-82
2023/03/31 13:04:11;;;;;;;27.17;23.10;;;33.10;69.00;;;;;;1833192;77;21111;-81
2023/03/31 13:06:47;;;;;;;26.20;21.45;;;33.10;69.10;;;;;;1841605;77;21158;-80
2023/03/31 13:09:21;;;;;;;25.55;22.60;;;33.10;69.40;;;;;;1840847;77;21462;-81
2023/03/31 13:11:53;;;;;;;27.22;23.32;;;33.10;69.30;;;;;;1845917;77;21115;-80
2023/03/31 13:14:26;;;;;;;27.40;23.38;;;33.00;69.20;;;;;;1836124;77;21217;-80
2023/03/31 13:17:00;;;;;;;23.98;21.48;;;33.00;69.20;;;;;;1833246;77;21135;-80
2023/03/31 13:19:33;;;;;;;29.63;23.15;;;33.00;68.80;;;;;;1827239;77;21107;-79